sensor_id;sensor_type;location;lat;lon;timestamp;pressure;altitude;pressure_sealevel;temperature
8533;BMP280;4304;53.876;10.662;2023-04-15T00:00:53;100966.63;;;7.23
8533;BMP280;4304;53.876;10.662;2023-04-15T00:03:18;100958.19;;;7.20
8533;BMP280;4304;53.876;10.662;2023-04-15T00:05:44;100970.09;;;7.22
8533;BMP280;4304;53.876;10.662;2023-04-15T00:08:09;100950.50;;;7.18
8533;BMP280;4304;53.876;10.662;2023-04-15T00:10:34;100951.78;;;7.26
8533;BMP280;4304;53.876;10.662;2023-04-15T00:13:00;100957.19;;;7.22
8533;BMP280;4304;53.876;10.662;2023-04-15T00:15:26;100950.28;;;7.22
8533;BMP280;4304;53.876;10.662;2023-04-15T00:17:52;100946.09;;;7.20
8533;BMP280;4304;53.876;10.662;2023-04-15T00:20:17;100954.53;;;7.23
8533;BMP280;4304;53.876;10.662;2023-04-15T00:22:42;100957.88;;;7.25
8533;BMP280;4304;53.876;10.662;2023-04-15T00:25:08;100956.22;;;7.24
8533;BMP280;4304;53.876;10.662;2023-04-15T00:27:33;100958.56;;;7.29
8533;BMP280;4304;53.876;10.662;2023-04-15T00:29:59;100963.56;;;7.32
8533;BMP280;4304;53.876;10.662;2023-04-15T00:32:24;100967.63;;;7.37
8533;BMP280;4304;53.876;10.662;2023-04-15T00:34:49;100958.41;;;7.32
8533;BMP280;4304;53.876;10.662;2023-04-15T00:37:15;100961.69;;;7.35
8533;BMP280;4304;53.876;10.662;2023-04-15T00:39:40;100964.34;;;7.34
8533;BMP280;4304;53.876;10.662;2023-04-15T00:42:05;100965.41;;;7.30
8533;BMP280;4304;53.876;10.662;2023-04-15T00:44:32;100967.75;;;7.34
8533;BMP280;4304;53.876;10.662;2023-04-15T00:46:59;100968.28;;;7.41
8533;BMP280;4304;53.876;10.662;2023-04-15T00:49:25;100972.63;;;7.40
8533;BMP280;4304;53.876;10.662;2023-04-15T00:51:51;100959.44;;;7.45
8533;BMP280;4304;53.876;10.662;2023-04-15T00:54:16;100972.38;;;7.45
8533;BMP280;4304;53.876;10.662;2023-04-15T00:56:42;100960.38;;;7.44
8533;BMP280;4304;53.876;10.662;2023-04-15T00:59:07;100961.34;;;7.41
8533;BMP280;4304;53.876;10.662;2023-04-15T01:01:34;100957.94;;;7.41
8533;BMP280;4304;53.876;10.662;2023-04-15T01:04:00;100954.69;;;7.37
8533;BMP280;4304;53.876;10.662;2023-04-15T01:06:25;100956.25;;;7.40
8533;BMP280;4304;53.876;10.662;2023-04-15T01:08:52;100958.78;;;7.41
8533;BMP280;4304;53.876;10.662;2023-04-15T01:11:18;100957.13;;;7.40
8533;BMP280;4304;53.876;10.662;2023-04-15T01:13:44;100946.06;;;7.37
8533;BMP280;4304;53.876;10.662;2023-04-15T01:16:10;100938.69;;;7.46
8533;BMP280;4304;53.876;10.662;2023-04-15T01:18:36;100930.84;;;7.48
8533;BMP280;4304;53.876;10.662;2023-04-15T01:21:04;100937.28;;;7.41
8533;BMP280;4304;53.876;10.662;2023-04-15T01:23:30;100922.91;;;7.35
8533;BMP280;4304;53.876;10.662;2023-04-15T01:25:56;100923.41;;;7.42
8533;BMP280;4304;53.876;10.662;2023-04-15T01:28:22;100935.44;;;7.43
8533;BMP280;4304;53.876;10.662;2023-04-15T01:30:47;100924.34;;;7.41
8533;BMP280;4304;53.876;10.662;2023-04-15T01:33:13;100924.78;;;7.32
8533;BMP280;4304;53.876;10.662;2023-04-15T01:35:38;100925.31;;;7.38
8533;BMP280;4304;53.876;10.662;2023-04-15T01:38:05;100911.78;;;7.33
8533;BMP280;4304;53.876;10.662;2023-04-15T01:40:32;100912.06;;;7.29
8533;BMP280;4304;53.876;10.662;2023-04-15T01:42:58;100905.81;;;7.33
8533;BMP280;4304;53.876;10.662;2023-04-15T01:45:23;100916.81;;;7.36
8533;BMP280;4304;53.876;10.662;2023-04-15T01:47:48;100910.28;;;7.29
8533;BMP280;4304;53.876;10.662;2023-04-15T01:50:14;100912.56;;;7.35
8533;BMP280;4304;53.876;10.662;2023-04-15T01:52:40;100906.88;;;7.29
8533;BMP280;4304;53.876;10.662;2023-04-15T01:55:06;100912.81;;;7.31
8533;BMP280;4304;53.876;10.662;2023-04-15T01:57:32;100909.47;;;7.29
8533;BMP280;4304;53.876;10.662;2023-04-15T01:59:58;100915.25;;;7.34
8533;BMP280;4304;53.876;10.662;2023-04-15T02:02:23;100916.75;;;7.38
8533;BMP280;4304;53.876;10.662;2023-04-15T02:04:48;100903.88;;;7.36
8533;BMP280;4304;53.876;10.662;2023-04-15T02:07:14;100902.31;;;7.17
8533;BMP280;4304;53.876;10.662;2023-04-15T02:09:39;100905.50;;;7.39
8533;BMP280;4304;53.876;10.662;2023-04-15T02:12:05;100902.53;;;7.29
8533;BMP280;4304;53.876;10.662;2023-04-15T02:14:30;100899.13;;;7.12
8533;BMP280;4304;53.876;10.662;2023-04-15T02:16:56;100903.16;;;7.18
8533;BMP280;4304;53.876;10.662;2023-04-15T02:19:21;100893.06;;;7.13
8533;BMP280;4304;53.876;10.662;2023-04-15T02:21:46;100891.63;;;7.08
8533;BMP280;4304;53.876;10.662;2023-04-15T02:24:12;100895.78;;;7.10
8533;BMP280;4304;53.876;10.662;2023-04-15T02:26:37;100896.88;;;7.06
8533;BMP280;4304;53.876;10.662;2023-04-15T02:29:03;100894.22;;;7.08
8533;BMP280;4304;53.876;10.662;2023-04-15T02:31:28;100894.97;;;7.10
8533;BMP280;4304;53.876;10.662;2023-04-15T02:33:53;100901.91;;;7.09
8533;BMP280;4304;53.876;10.662;2023-04-15T02:36:19;100902.94;;;7.05
8533;BMP280;4304;53.876;10.662;2023-04-15T02:38:45;100898.59;;;7.06
8533;BMP280;4304;53.876;10.662;2023-04-15T02:41:11;100889.19;;;7.05
8533;BMP280;4304;53.876;10.662;2023-04-15T02:43:36;100897.34;;;7.14
8533;BMP280;4304;53.876;10.662;2023-04-15T02:46:04;100897.41;;;7.13
8533;BMP280;4304;53.876;10.662;2023-04-15T02:48:30;100898.72;;;7.04
8533;BMP280;4304;53.876;10.662;2023-04-15T02:51:19;100896.28;;;7.01
8533;BMP280;4304;53.876;10.662;2023-04-15T02:53:46;100893.53;;;7.04
8533;BMP280;4304;53.876;10.662;2023-04-15T02:56:12;100890.78;;;7.07
8533;BMP280;4304;53.876;10.662;2023-04-15T02:58:39;100904.16;;;7.15
8533;BMP280;4304;53.876;10.662;2023-04-15T03:01:05;100900.50;;;7.19
8533;BMP280;4304;53.876;10.662;2023-04-15T03:03:31;100892.97;;;7.15
8533;BMP280;4304;53.876;10.662;2023-04-15T03:05:56;100892.56;;;7.22
8533;BMP280;4304;53.876;10.662;2023-04-15T03:08:22;100887.00;;;7.14
8533;BMP280;4304;53.876;10.662;2023-04-15T03:10:47;100898.09;;;7.16
8533;BMP280;4304;53.876;10.662;2023-04-15T03:13:13;100886.81;;;7.17
8533;BMP280;4304;53.876;10.662;2023-04-15T03:15:38;100903.09;;;7.19
8533;BMP280;4304;53.876;10.662;2023-04-15T03:18:03;100888.19;;;7.24
8533;BMP280;4304;53.876;10.662;2023-04-15T03:20:28;100893.19;;;7.27
8533;BMP280;4304;53.876;10.662;2023-04-15T03:22:54;100896.69;;;7.26
8533;BMP280;4304;53.876;10.662;2023-04-15T03:25:19;100897.97;;;7.34
8533;BMP280;4304;53.876;10.662;2023-04-15T03:27:45;100902.13;;;7.37
8533;BMP280;4304;53.876;10.662;2023-04-15T03:30:11;100907.78;;;7.28
8533;BMP280;4304;53.876;10.662;2023-04-15T03:32:36;100912.34;;;7.23
8533;BMP280;4304;53.876;10.662;2023-04-15T03:35:02;100905.94;;;7.30
8533;BMP280;4304;53.876;10.662;2023-04-15T03:37:27;100902.09;;;7.22
8533;BMP280;4304;53.876;10.662;2023-04-15T03:39:52;100906.28;;;7.24
8533;BMP280;4304;53.876;10.662;2023-04-15T03:42:18;100905.81;;;7.33
8533;BMP280;4304;53.876;10.662;2023-04-15T03:44:43;100907.78;;;7.28
8533;BMP280;4304;53.876;10.662;2023-04-15T03:47:08;100909.34;;;7.30
8533;BMP280;4304;53.876;10.662;2023-04-15T03:49:34;100905.28;;;7.26
8533;BMP280;4304;53.876;10.662;2023-04-15T03:52:00;100905.44;;;7.23
8533;BMP280;4304;53.876;10.662;2023-04-15T03:54:25;100908.69;;;7.27
8533;BMP280;4304;53.876;10.662;2023-04-15T03:56:50;100914.88;;;7.24
8533;BMP280;4304;53.876;10.662;2023-04-15T03:59:16;100906.69;;;7.32
8533;BMP280;4304;53.876;10.662;2023-04-15T04:01:41;100910.28;;;7.29
8533;BMP280;4304;53.876;10.662;2023-04-15T04:04:07;100913.41;;;7.36
8533;BMP280;4304;53.876;10.662;2023-04-15T04:06:32;100916.81;;;7.36
8533;BMP280;4304;53.876;10.662;2023-04-15T04:08:57;100910.97;;;7.33
8533;BMP280;4304;53.876;10.662;2023-04-15T04:11:23;100913.78;;;7.28
8533;BMP280;4304;53.876;10.662;2023-04-15T04:13:48;100912.13;;;7.27
8533;BMP280;4304;53.876;10.662;2023-04-15T04:16:13;100915.91;;;7.37
8533;BMP280;4304;53.876;10.662;2023-04-15T04:18:38;100904.03;;;7.33
8533;BMP280;4304;53.876;10.662;2023-04-15T04:21:04;100904.91;;;7.34
8533;BMP280;4304;53.876;10.662;2023-04-15T04:23:29;100903.06;;;7.36
8533;BMP280;4304;53.876;10.662;2023-04-15T04:25:55;100900.03;;;7.28
8533;BMP280;4304;53.876;10.662;2023-04-15T04:28:20;100914.47;;;7.32
8533;BMP280;4304;53.876;10.662;2023-04-15T04:30:46;100909.34;;;7.30
8533;BMP280;4304;53.876;10.662;2023-04-15T04:33:11;100912.97;;;7.28
8533;BMP280;4304;53.876;10.662;2023-04-15T04:35:37;100897.16;;;7.34
8533;BMP280;4304;53.876;10.662;2023-04-15T04:38:03;100893.78;;;7.32
8533;BMP280;4304;53.876;10.662;2023-04-15T04:40:28;100900.78;;;7.30
8533;BMP280;4304;53.876;10.662;2023-04-15T04:42:54;100907.63;;;7.31
8533;BMP280;4304;53.876;10.662;2023-04-15T04:45:19;100907.56;;;7.32
8533;BMP280;4304;53.876;10.662;2023-04-15T04:47:45;100913.56;;;7.33
8533;BMP280;4304;53.876;10.662;2023-04-15T04:50:11;100921.22;;;7.34
8533;BMP280;4304;53.876;10.662;2023-04-15T04:52:37;100924.13;;;7.28
8533;BMP280;4304;53.876;10.662;2023-04-15T04:55:02;100932.63;;;7.30
8533;BMP280;4304;53.876;10.662;2023-04-15T04:57:28;100914.47;;;7.32
8533;BMP280;4304;53.876;10.662;2023-04-15T04:59:53;100924.56;;;7.36
8533;BMP280;4304;53.876;10.662;2023-04-15T05:02:18;100921.75;;;7.41
8533;BMP280;4304;53.876;10.662;2023-04-15T05:04:44;100913.41;;;7.36
8533;BMP280;4304;53.876;10.662;2023-04-15T05:07:09;100924.78;;;7.32
8533;BMP280;4304;53.876;10.662;2023-04-15T05:09:35;100916.44;;;7.44
8533;BMP280;4304;53.876;10.662;2023-04-15T05:12:01;100924.19;;;7.44
8533;BMP280;4304;53.876;10.662;2023-04-15T05:14:26;100917.19;;;7.46
8533;BMP280;4304;53.876;10.662;2023-04-15T05:16:51;100920.75;;;7.43
8533;BMP280;4304;53.876;10.662;2023-04-15T05:19:17;100930.78;;;7.49
8533;BMP280;4304;53.876;10.662;2023-04-15T05:21:42;100920.44;;;7.49
8533;BMP280;4304;53.876;10.662;2023-04-15T05:24:07;100924.44;;;7.55
8533;BMP280;4304;53.876;10.662;2023-04-15T05:26:32;100925.31;;;7.55
8533;BMP280;4304;53.876;10.662;2023-04-15T05:28:58;100917.25;;;7.44
8533;BMP280;4304;53.876;10.662;2023-04-15T05:31:23;100912.53;;;7.52
8533;BMP280;4304;53.876;10.662;2023-04-15T05:33:48;100926.50;;;7.48
8533;BMP280;4304;53.876;10.662;2023-04-15T05:36:14;100931.00;;;7.45
8533;BMP280;4304;53.876;10.662;2023-04-15T05:38:39;100935.31;;;7.61
8533;BMP280;4304;53.876;10.662;2023-04-15T05:41:05;100930.25;;;7.43
8533;BMP280;4304;53.876;10.662;2023-04-15T05:43:30;100927.78;;;7.57
8533;BMP280;4304;53.876;10.662;2023-04-15T05:45:56;100931.81;;;7.62
8533;BMP280;4304;53.876;10.662;2023-04-15T05:48:21;100940.63;;;7.58
8533;BMP280;4304;53.876;10.662;2023-04-15T05:50:46;100928.59;;;7.74
8533;BMP280;4304;53.876;10.662;2023-04-15T05:53:12;100933.97;;;7.54
8533;BMP280;4304;53.876;10.662;2023-04-15T05:55:37;100940.91;;;7.54
8533;BMP280;4304;53.876;10.662;2023-04-15T05:58:02;100941.16;;;7.64
8533;BMP280;4304;53.876;10.662;2023-04-15T06:00:28;100951.56;;;7.63
8533;BMP280;4304;53.876;10.662;2023-04-15T06:02:55;100956.06;;;7.60
8533;BMP280;4304;53.876;10.662;2023-04-15T06:05:20;100954.88;;;7.50
8533;BMP280;4304;53.876;10.662;2023-04-15T06:07:45;100954.28;;;7.62
8533;BMP280;4304;53.876;10.662;2023-04-15T06:10:11;100963.50;;;7.50
8533;BMP280;4304;53.876;10.662;2023-04-15T06:12:36;100976.91;;;7.57
8533;BMP280;4304;53.876;10.662;2023-04-15T06:15:02;100979.50;;;7.73
8533;BMP280;4304;53.876;10.662;2023-04-15T06:17:28;100976.75;;;7.60
8533;BMP280;4304;53.876;10.662;2023-04-15T06:19:53;100974.97;;;7.45
8533;BMP280;4304;53.876;10.662;2023-04-15T06:22:22;100966.38;;;7.44
8533;BMP280;4304;53.876;10.662;2023-04-15T06:24:48;100976.44;;;7.50
8533;BMP280;4304;53.876;10.662;2023-04-15T06:27:14;100983.16;;;7.53
8533;BMP280;4304;53.876;10.662;2023-04-15T06:29:40;100988.50;;;7.50
8533;BMP280;4304;53.876;10.662;2023-04-15T06:32:06;100985.31;;;7.45
8533;BMP280;4304;53.876;10.662;2023-04-15T06:34:31;100973.44;;;7.58
8533;BMP280;4304;53.876;10.662;2023-04-15T06:36:57;100975.38;;;7.69
8533;BMP280;4304;53.876;10.662;2023-04-15T06:39:22;100982.28;;;7.54
8533;BMP280;4304;53.876;10.662;2023-04-15T06:41:47;100982.19;;;7.55
8533;BMP280;4304;53.876;10.662;2023-04-15T06:44:13;100982.88;;;7.59
8533;BMP280;4304;53.876;10.662;2023-04-15T06:46:38;100976.69;;;7.61
8533;BMP280;4304;53.876;10.662;2023-04-15T06:49:03;100984.44;;;7.61
8533;BMP280;4304;53.876;10.662;2023-04-15T06:51:29;100984.78;;;7.55
8533;BMP280;4304;53.876;10.662;2023-04-15T06:53:55;100988.97;;;7.73
8533;BMP280;4304;53.876;10.662;2023-04-15T06:56:21;100984.66;;;7.73
8533;BMP280;4304;53.876;10.662;2023-04-15T06:58:47;101000.63;;;7.81
8533;BMP280;4304;53.876;10.662;2023-04-15T07:01:12;100998.28;;;7.77
8533;BMP280;4304;53.876;10.662;2023-04-15T07:03:38;100999.19;;;7.76
8533;BMP280;4304;53.876;10.662;2023-04-15T07:06:03;100989.19;;;7.85
8533;BMP280;4304;53.876;10.662;2023-04-15T07:08:31;101000.81;;;7.94
8533;BMP280;4304;53.876;10.662;2023-04-15T07:10:56;101001.16;;;7.71
8533;BMP280;4304;53.876;10.662;2023-04-15T07:13:22;101003.44;;;7.77
8533;BMP280;4304;53.876;10.662;2023-04-15T07:15:47;101003.22;;;7.64
8533;BMP280;4304;53.876;10.662;2023-04-15T07:18:12;101018.13;;;7.76
8533;BMP280;4304;53.876;10.662;2023-04-15T07:20:38;101015.22;;;7.50
8533;BMP280;4304;53.876;10.662;2023-04-15T07:23:04;101013.13;;;7.57
8533;BMP280;4304;53.876;10.662;2023-04-15T07:25:29;101011.75;;;7.50
8533;BMP280;4304;53.876;10.662;2023-04-15T07:27:54;101013.59;;;7.48
8533;BMP280;4304;53.876;10.662;2023-04-15T07:30:20;101013.13;;;7.57
8533;BMP280;4304;53.876;10.662;2023-04-15T07:32:45;101015.34;;;7.47
8533;BMP280;4304;53.876;10.662;2023-04-15T07:35:11;101012.81;;;7.63
8533;BMP280;4304;53.876;10.662;2023-04-15T07:37:36;101025.91;;;7.76
8533;BMP280;4304;53.876;10.662;2023-04-15T07:40:02;101015.84;;;7.70
8533;BMP280;4304;53.876;10.662;2023-04-15T07:42:32;101018.97;;;7.77
8533;BMP280;4304;53.876;10.662;2023-04-15T07:44:58;101018.75;;;7.64
8533;BMP280;4304;53.876;10.662;2023-04-15T07:47:23;101028.50;;;7.76
8533;BMP280;4304;53.876;10.662;2023-04-15T07:49:48;101029.44;;;7.91
8533;BMP280;4304;53.876;10.662;2023-04-15T07:52:15;101045.50;;;7.80
8533;BMP280;4304;53.876;10.662;2023-04-15T07:54:40;101036.06;;;7.96
8533;BMP280;4304;53.876;10.662;2023-04-15T07:57:06;101045.41;;;7.99
8533;BMP280;4304;53.876;10.662;2023-04-15T07:59:32;101054.63;;;7.87
8533;BMP280;4304;53.876;10.662;2023-04-15T08:01:57;101041.31;;;7.95
8533;BMP280;4304;53.876;10.662;2023-04-15T08:04:23;101042.53;;;7.88
8533;BMP280;4304;53.876;10.662;2023-04-15T08:06:48;101052.25;;;8.00
8533;BMP280;4304;53.876;10.662;2023-04-15T08:09:14;101051.25;;;8.02
8533;BMP280;4304;53.876;10.662;2023-04-15T08:11:39;101055.38;;;8.06
8533;BMP280;4304;53.876;10.662;2023-04-15T08:14:06;101063.88;;;8.08
8533;BMP280;4304;53.876;10.662;2023-04-15T08:16:31;101058.41;;;7.97
8533;BMP280;4304;53.876;10.662;2023-04-15T08:18:57;101055.19;;;8.09
8533;BMP280;4304;53.876;10.662;2023-04-15T08:21:23;101059.88;;;8.03
8533;BMP280;4304;53.876;10.662;2023-04-15T08:23:50;101068.69;;;7.99
8533;BMP280;4304;53.876;10.662;2023-04-15T08:26:16;101063.34;;;8.18
8533;BMP280;4304;53.876;10.662;2023-04-15T08:28:44;101065.47;;;8.27
8533;BMP280;4304;53.876;10.662;2023-04-15T08:31:10;101065.91;;;8.51
8533;BMP280;4304;53.876;10.662;2023-04-15T08:33:36;101056.09;;;8.40
8533;BMP280;4304;53.876;10.662;2023-04-15T08:36:01;101068.41;;;8.67
8533;BMP280;4304;53.876;10.662;2023-04-15T08:38:27;101066.75;;;8.66
8533;BMP280;4304;53.876;10.662;2023-04-15T08:40:52;101066.16;;;8.61
8533;BMP280;4304;53.876;10.662;2023-04-15T08:43:21;101078.63;;;8.86
8533;BMP280;4304;53.876;10.662;2023-04-15T08:45:51;101066.56;;;9.00
8533;BMP280;4304;53.876;10.662;2023-04-15T08:48:17;101059.13;;;8.94
8533;BMP280;4304;53.876;10.662;2023-04-15T08:50:44;101068.25;;;9.01
8533;BMP280;4304;53.876;10.662;2023-04-15T08:53:10;101060.28;;;9.19
8533;BMP280;4304;53.876;10.662;2023-04-15T08:55:43;101079.84;;;9.25
8533;BMP280;4304;53.876;10.662;2023-04-15T08:58:10;101067.19;;;9.34
8533;BMP280;4304;53.876;10.662;2023-04-15T09:00:36;101060.56;;;9.44
8533;BMP280;4304;53.876;10.662;2023-04-15T09:03:04;101070.56;;;9.50
8533;BMP280;4304;53.876;10.662;2023-04-15T09:05:32;101081.94;;;9.34
8533;BMP280;4304;53.876;10.662;2023-04-15T09:07:58;101083.97;;;9.42
8533;BMP280;4304;53.876;10.662;2023-04-15T09:10:23;101079.66;;;9.28
8533;BMP280;4304;53.876;10.662;2023-04-15T09:12:48;101081.94;;;9.34
8533;BMP280;4304;53.876;10.662;2023-04-15T09:15:14;101080.09;;;9.49
8533;BMP280;4304;53.876;10.662;2023-04-15T09:17:43;101072.19;;;9.66
8533;BMP280;4304;53.876;10.662;2023-04-15T09:20:13;101082.28;;;9.71
8533;BMP280;4304;53.876;10.662;2023-04-15T09:22:40;101086.81;;;9.53
8533;BMP280;4304;53.876;10.662;2023-04-15T09:25:26;101077.28;;;9.68
8533;BMP280;4304;53.876;10.662;2023-04-15T09:27:58;101084.81;;;9.72
8533;BMP280;4304;53.876;10.662;2023-04-15T09:30:24;101091.47;;;9.62
8533;BMP280;4304;53.876;10.662;2023-04-15T09:33:07;101100.22;;;9.89
8533;BMP280;4304;53.876;10.662;2023-04-15T09:35:35;101096.19;;;9.99
8533;BMP280;4304;53.876;10.662;2023-04-15T09:38:03;101098.28;;;10.35
8533;BMP280;4304;53.876;10.662;2023-04-15T09:40:41;101103.34;;;10.64
8533;BMP280;4304;53.876;10.662;2023-04-15T09:43:07;101101.97;;;10.59
8533;BMP280;4304;53.876;10.662;2023-04-15T09:45:34;101094.03;;;10.88
8533;BMP280;4304;53.876;10.662;2023-04-15T09:48:19;101110.41;;;10.76
8533;BMP280;4304;53.876;10.662;2023-04-15T09:50:48;101107.75;;;10.50
8533;BMP280;4304;53.876;10.662;2023-04-15T09:53:18;101118.56;;;10.70
8533;BMP280;4304;53.876;10.662;2023-04-15T09:55:55;101109.13;;;10.96
8533;BMP280;4304;53.876;10.662;2023-04-15T09:58:25;101118.91;;;10.92
8533;BMP280;4304;53.876;10.662;2023-04-15T10:00:52;101125.41;;;10.85
8533;BMP280;4304;53.876;10.662;2023-04-15T10:03:19;101124.47;;;11.26
8533;BMP280;4304;53.876;10.662;2023-04-15T10:05:47;101130.16;;;10.93
8533;BMP280;4304;53.876;10.662;2023-04-15T10:08:13;101134.50;;;10.92
8533;BMP280;4304;53.876;10.662;2023-04-15T10:10:39;101132.63;;;11.08
8533;BMP280;4304;53.876;10.662;2023-04-15T10:13:05;101133.66;;;11.06
8533;BMP280;4304;53.876;10.662;2023-04-15T10:15:31;101138.00;;;11.19
8533;BMP280;4304;53.876;10.662;2023-04-15T10:17:59;101137.03;;;11.20
8533;BMP280;4304;53.876;10.662;2023-04-15T10:20:25;101128.06;;;11.38
8533;BMP280;4304;53.876;10.662;2023-04-15T10:22:53;101127.41;;;11.48
8533;BMP280;4304;53.876;10.662;2023-04-15T10:25:19;101130.25;;;11.57
8533;BMP280;4304;53.876;10.662;2023-04-15T10:27:45;101137.13;;;11.45
8533;BMP280;4304;53.876;10.662;2023-04-15T10:30:12;101145.25;;;11.14
8533;BMP280;4304;53.876;10.662;2023-04-15T10:32:38;101144.81;;;11.34
8533;BMP280;4304;53.876;10.662;2023-04-15T10:35:05;101148.13;;;10.96
8533;BMP280;4304;53.876;10.662;2023-04-15T10:37:37;101152.88;;;11.03
8533;BMP280;4304;53.876;10.662;2023-04-15T10:42:57;101150.50;;;10.45
8533;BMP280;4304;53.876;10.662;2023-04-15T10:45:27;101153.66;;;10.22
8533;BMP280;4304;53.876;10.662;2023-04-15T10:48:01;101158.69;;;10.39
8533;BMP280;4304;53.876;10.662;2023-04-15T10:50:27;101151.16;;;10.34
8533;BMP280;4304;53.876;10.662;2023-04-15T10:52:55;101158.88;;;10.64
8533;BMP280;4304;53.876;10.662;2023-04-15T10:55:22;101163.00;;;10.11
8533;BMP280;4304;53.876;10.662;2023-04-15T10:57:57;101155.47;;;10.06
8533;BMP280;4304;53.876;10.662;2023-04-15T11:00:24;101173.69;;;10.48
8533;BMP280;4304;53.876;10.662;2023-04-15T11:08:05;101182.97;;;10.24
8533;BMP280;4304;53.876;10.662;2023-04-15T11:12:58;101180.47;;;10.36
8533;BMP280;4304;53.876;10.662;2023-04-15T11:15:42;101188.25;;;9.93
8533;BMP280;4304;53.876;10.662;2023-04-15T11:18:22;101188.03;;;10.12
8533;BMP280;4304;53.876;10.662;2023-04-15T11:20:51;101185.03;;;10.47
8533;BMP280;4304;53.876;10.662;2023-04-15T11:23:18;101178.84;;;10.20
8533;BMP280;4304;53.876;10.662;2023-04-15T11:25:44;101193.13;;;10.13
8533;BMP280;4304;53.876;10.662;2023-04-15T11:28:11;101186.22;;;10.27
8533;BMP280;4304;53.876;10.662;2023-04-15T11:30:37;101188.38;;;10.76
8533;BMP280;4304;53.876;10.662;2023-04-15T11:33:07;101198.56;;;11.21
8533;BMP280;4304;53.876;10.662;2023-04-15T11:35:33;101203.03;;;11.05
8533;BMP280;4304;53.876;10.662;2023-04-15T11:38:11;101198.06;;;10.74
8533;BMP280;4304;53.876;10.662;2023-04-15T11:40:37;101204.44;;;10.69
8533;BMP280;4304;53.876;10.662;2023-04-15T11:43:04;101203.41;;;10.85
8533;BMP280;4304;53.876;10.662;2023-04-15T11:45:30;101194.91;;;11.23
8533;BMP280;4304;53.876;10.662;2023-04-15T11:48:10;101208.53;;;10.87
8533;BMP280;4304;53.876;10.662;2023-04-15T11:50:37;101207.13;;;10.95
8533;BMP280;4304;53.876;10.662;2023-04-15T11:53:06;101217.97;;;11.02
8533;BMP280;4304;53.876;10.662;2023-04-15T11:55:41;101211.47;;;11.22
8533;BMP280;4304;53.876;10.662;2023-04-15T12:00:32;101216.84;;;11.47
8533;BMP280;4304;53.876;10.662;2023-04-15T12:03:30;101211.31;;;11.38
8533;BMP280;4304;53.876;10.662;2023-04-15T12:06:19;101214.47;;;11.43
8533;BMP280;4304;53.876;10.662;2023-04-15T12:13:53;101220.50;;;10.89
8533;BMP280;4304;53.876;10.662;2023-04-15T12:16:20;101226.53;;;10.90
8533;BMP280;4304;53.876;10.662;2023-04-15T12:18:46;101229.13;;;10.90
8533;BMP280;4304;53.876;10.662;2023-04-15T12:21:14;101240.16;;;11.49
8533;BMP280;4304;53.876;10.662;2023-04-15T12:24:00;101231.22;;;11.25
8533;BMP280;4304;53.876;10.662;2023-04-15T12:26:33;101235.22;;;11.58
8533;BMP280;4304;53.876;10.662;2023-04-15T12:29:05;101244.69;;;11.45
8533;BMP280;4304;53.876;10.662;2023-04-15T12:31:33;101249.59;;;11.63
8533;BMP280;4304;53.876;10.662;2023-04-15T12:33:59;101248.97;;;11.46
8533;BMP280;4304;53.876;10.662;2023-04-15T12:36:25;101250.63;;;11.87
8533;BMP280;4304;53.876;10.662;2023-04-15T12:38:51;101256.31;;;12.06
8533;BMP280;4304;53.876;10.662;2023-04-15T12:41:16;101249.06;;;11.58
8533;BMP280;4304;53.876;10.662;2023-04-15T12:43:45;101252.91;;;11.53
8533;BMP280;4304;53.876;10.662;2023-04-15T12:46:13;101253.78;;;11.38
8533;BMP280;4304;53.876;10.662;2023-04-15T12:48:39;101251.94;;;11.40
8533;BMP280;4304;53.876;10.662;2023-04-15T12:51:05;101261.16;;;11.18
8533;BMP280;4304;53.876;10.662;2023-04-15T12:53:30;101259.59;;;11.15
8533;BMP280;4304;53.876;10.662;2023-04-15T12:55:56;101265.38;;;10.93
8533;BMP280;4304;53.876;10.662;2023-04-15T12:58:21;101256.06;;;11.16
8533;BMP280;4304;53.876;10.662;2023-04-15T13:00:47;101268.88;;;10.92
8533;BMP280;4304;53.876;10.662;2023-04-15T13:03:13;101259.16;;;11.09
8533;BMP280;4304;53.876;10.662;2023-04-15T13:05:39;101254.28;;;11.17
8533;BMP280;4304;53.876;10.662;2023-04-15T13:08:05;101268.78;;;11.49
8533;BMP280;4304;53.876;10.662;2023-04-15T13:10:31;101275.19;;;11.29
8533;BMP280;4304;53.876;10.662;2023-04-15T13:12:56;101278.16;;;11.37
8533;BMP280;4304;53.876;10.662;2023-04-15T13:15:22;101291.06;;;11.25
8533;BMP280;4304;53.876;10.662;2023-04-15T13:17:48;101281.69;;;10.95
8533;BMP280;4304;53.876;10.662;2023-04-15T13:20:14;101280.41;;;10.88
8533;BMP280;4304;53.876;10.662;2023-04-15T13:22:39;101284.88;;;11.00
8533;BMP280;4304;53.876;10.662;2023-04-15T13:25:06;101284.78;;;11.01
8533;BMP280;4304;53.876;10.662;2023-04-15T13:27:32;101291.72;;;11.14
8533;BMP280;4304;53.876;10.662;2023-04-15T13:29:57;101302.50;;;11.22
8533;BMP280;4304;53.876;10.662;2023-04-15T13:32:24;101300.75;;;11.09
8533;BMP280;4304;53.876;10.662;2023-04-15T13:34:49;101292.66;;;11.00
8533;BMP280;4304;53.876;10.662;2023-04-15T13:37:15;101301.38;;;10.85
8533;BMP280;4304;53.876;10.662;2023-04-15T13:39:40;101293.56;;;10.99
8533;BMP280;4304;53.876;10.662;2023-04-15T13:42:06;101308.53;;;10.81
8533;BMP280;4304;53.876;10.662;2023-04-15T13:44:31;101285.78;;;10.85
8533;BMP280;4304;53.876;10.662;2023-04-15T13:46:56;101303.34;;;11.23
8533;BMP280;4304;53.876;10.662;2023-04-15T13:49:22;101317.19;;;11.37
8533;BMP280;4304;53.876;10.662;2023-04-15T13:51:47;101309.00;;;11.29
8533;BMP280;4304;53.876;10.662;2023-04-15T13:54:12;101311.41;;;11.18
8533;BMP280;4304;53.876;10.662;2023-04-15T13:56:38;101308.81;;;11.05
8533;BMP280;4304;53.876;10.662;2023-04-15T13:59:03;101311.34;;;11.06
8533;BMP280;4304;53.876;10.662;2023-04-15T14:01:30;101312.94;;;11.22
8533;BMP280;4304;53.876;10.662;2023-04-15T14:03:56;101319.41;;;11.29
8533;BMP280;4304;53.876;10.662;2023-04-15T14:06:21;101317.75;;;11.56
8533;BMP280;4304;53.876;10.662;2023-04-15T14:08:46;101334.69;;;11.49
8533;BMP280;4304;53.876;10.662;2023-04-15T14:11:12;101335.78;;;11.59
8533;BMP280;4304;53.876;10.662;2023-04-15T14:13:37;101329.44;;;11.21
8533;BMP280;4304;53.876;10.662;2023-04-15T14:16:03;101330.56;;;11.31
8533;BMP280;4304;53.876;10.662;2023-04-15T14:18:28;101333.53;;;10.98
8533;BMP280;4304;53.876;10.662;2023-04-15T14:20:55;101337.31;;;10.92
8533;BMP280;4304;53.876;10.662;2023-04-15T14:23:20;101333.91;;;11.06
8533;BMP280;4304;53.876;10.662;2023-04-15T14:25:45;101350.44;;;11.18
8533;BMP280;4304;53.876;10.662;2023-04-15T14:28:11;101350.63;;;11.02
8533;BMP280;4304;53.876;10.662;2023-04-15T14:30:36;101346.16;;;11.04